createdAt,value
2017-08-09T00:00:41.402Z,18.60
2017-08-09T00:03:09.691Z,18.50
2017-08-09T00:05:37.254Z,18.50
2017-08-09T00:08:04.983Z,18.50
2017-08-09T00:10:32.487Z,18.50
2017-08-09T00:13:00.039Z,18.50
2017-08-09T00:15:27.536Z,18.50
2017-08-09T00:17:55.054Z,18.50
2017-08-09T00:20:23.314Z,18.50
2017-08-09T00:22:51.601Z,18.40
2017-08-09T00:25:19.110Z,18.50
2017-08-09T00:27:46.944Z,18.40
2017-08-09T00:30:14.808Z,18.40
2017-08-09T00:32:42.351Z,18.40
2017-08-09T00:35:09.847Z,18.40
2017-08-09T00:37:37.574Z,18.40
2017-08-09T00:40:05.136Z,18.40
2017-08-09T00:42:32.695Z,18.40
2017-08-09T00:45:00.207Z,18.40
2017-08-09T00:47:27.711Z,18.40
2017-08-09T00:49:55.230Z,18.40
2017-08-09T00:52:22.735Z,18.40
2017-08-09T00:54:50.254Z,18.40
2017-08-09T00:57:18.559Z,18.30
2017-08-09T00:59:46.115Z,18.30
2017-08-09T01:02:13.618Z,18.40
2017-08-09T01:04:41.141Z,18.40
2017-08-09T01:07:08.639Z,18.40
2017-08-09T01:09:36.159Z,18.30
2017-08-09T01:12:04.268Z,18.30
2017-08-09T01:14:31.809Z,18.30
2017-08-09T01:16:59.311Z,18.30
2017-08-09T01:19:27.584Z,18.30
2017-08-09T01:21:55.881Z,18.30
2017-08-09T01:24:23.451Z,18.30
2017-08-09T01:26:50.971Z,18.20
2017-08-09T01:29:18.466Z,18.20
2017-08-09T01:31:46.023Z,18.20
2017-08-09T01:34:13.578Z,18.30
2017-08-09T01:36:41.463Z,18.30
2017-08-09T01:39:08.960Z,18.20
2017-08-09T01:41:36.477Z,18.20
2017-08-09T01:44:04.414Z,18.20
2017-08-09T01:46:32.690Z,18.10
2017-08-09T01:49:00.958Z,18.10
2017-08-09T01:51:29.258Z,18.10
2017-08-09T01:53:56.758Z,18.10
2017-08-09T01:56:24.279Z,18.10
2017-08-09T01:58:51.835Z,18.10
2017-08-09T02:01:19.331Z,18.10
2017-08-09T02:03:47.162Z,18.10
2017-08-09T02:06:14.671Z,18.10
2017-08-09T02:08:42.272Z,18.10
2017-08-09T02:11:09.771Z,18.10
2017-08-09T02:13:37.386Z,18.10
2017-08-09T02:16:05.702Z,18.10
2017-08-09T02:18:33.218Z,18.00
2017-08-09T02:21:01.335Z,17.90
2017-08-09T02:23:28.848Z,17.90
2017-08-09T02:25:56.359Z,17.90
2017-08-09T02:28:23.883Z,17.80
2017-08-09T02:30:52.170Z,17.80
2017-08-09T02:33:19.671Z,17.70
2017-08-09T02:35:47.186Z,17.60
2017-08-09T02:38:14.682Z,17.70
2017-08-09T02:40:42.284Z,17.60
2017-08-09T02:43:09.795Z,17.50
2017-08-09T02:45:37.312Z,17.50
2017-08-09T02:48:04.811Z,17.50
2017-08-09T02:50:32.326Z,17.50
2017-08-09T02:52:59.831Z,17.50
2017-08-09T02:55:27.349Z,17.50
2017-08-09T02:57:54.850Z,17.50
2017-08-09T03:00:23.065Z,17.50
2017-08-09T03:02:51.286Z,17.50
2017-08-09T03:05:18.890Z,17.50
2017-08-09T03:07:46.390Z,17.50
2017-08-09T03:10:13.903Z,17.50
2017-08-09T03:12:41.470Z,17.50
2017-08-09T03:15:09.238Z,17.40
2017-08-09T03:17:37.519Z,17.40
2017-08-09T03:20:05.023Z,17.40
2017-08-09T03:22:32.627Z,17.20
2017-08-09T03:25:00.181Z,17.00
2017-08-09T03:27:27.694Z,17.00
2017-08-09T03:29:55.606Z,16.90
2017-08-09T03:32:23.170Z,16.90
2017-08-09T03:34:51.474Z,16.80
2017-08-09T03:37:19.003Z,16.80
2017-08-09T03:39:47.108Z,16.70
2017-08-09T03:42:14.635Z,16.60
2017-08-09T03:44:42.635Z,16.60
2017-08-09T03:47:10.188Z,16.60
2017-08-09T03:49:38.231Z,16.60
2017-08-09T03:52:05.740Z,16.60
2017-08-09T03:54:33.347Z,16.60
2017-08-09T03:57:00.915Z,16.60
2017-08-09T03:59:28.435Z,16.50
2017-08-09T04:01:56.713Z,16.40
2017-08-09T04:04:24.234Z,16.40
2017-08-09T04:06:51.738Z,16.40
2017-08-09T04:09:20.014Z,16.50
2017-08-09T04:11:48.275Z,16.40
2017-08-09T04:14:15.803Z,16.40
2017-08-09T04:16:43.311Z,16.40
2017-08-09T04:19:11.591Z,16.30
2017-08-09T04:21:40.667Z,16.30
2017-08-09T04:24:09.052Z,16.30
2017-08-09T04:26:37.350Z,16.30
2017-08-09T04:29:04.914Z,16.30
2017-08-09T04:31:32.435Z,16.30
2017-08-09T04:33:59.934Z,16.20
2017-08-09T04:36:27.448Z,16.20
2017-08-09T04:38:54.952Z,16.20
2017-08-09T04:41:22.471Z,16.30
2017-08-09T04:43:50.781Z,16.40
2017-08-09T04:46:18.303Z,16.30
2017-08-09T04:48:45.896Z,16.30
2017-08-09T04:51:13.414Z,16.40
2017-08-09T04:53:40.919Z,16.30
2017-08-09T04:56:08.455Z,16.20
2017-08-09T04:58:36.742Z,16.00
2017-08-09T05:01:04.243Z,16.00
2017-08-09T05:03:31.859Z,16.10
2017-08-09T05:05:59.358Z,16.00
2017-08-09T05:08:26.875Z,16.00
2017-08-09T05:10:54.376Z,16.00
2017-08-09T05:13:22.422Z,15.90
2017-08-09T05:15:49.926Z,15.90
2017-08-09T05:18:17.436Z,15.70
2017-08-09T05:20:44.983Z,15.70
2017-08-09T05:23:12.539Z,15.80
2017-08-09T05:25:40.034Z,15.90
2017-08-09T05:28:07.903Z,16.00
2017-08-09T05:30:35.420Z,16.10
2017-08-09T05:33:02.927Z,16.20
2017-08-09T05:35:30.452Z,16.20
2017-08-09T05:37:57.950Z,16.20
2017-08-09T05:40:25.467Z,16.10
2017-08-09T05:42:53.006Z,16.10
2017-08-09T05:45:20.571Z,16.10
2017-08-09T05:47:48.131Z,16.20
2017-08-09T05:50:15.815Z,16.20
2017-08-09T05:52:43.350Z,16.30
2017-08-09T05:55:10.866Z,16.30
2017-08-09T05:57:38.366Z,16.40
2017-08-09T06:00:05.890Z,16.40
2017-08-09T06:02:33.594Z,16.40
2017-08-09T06:05:01.091Z,16.50
2017-08-09T06:07:28.702Z,16.60
2017-08-09T06:09:56.258Z,16.60
2017-08-09T06:12:23.828Z,16.60
2017-08-09T06:14:51.326Z,16.70
2017-08-09T06:17:18.934Z,16.70
2017-08-09T06:19:46.433Z,16.80
2017-08-09T06:22:13.961Z,16.90
2017-08-09T06:24:41.469Z,17.00
2017-08-09T06:27:08.990Z,17.00
2017-08-09T06:29:37.175Z,16.90
2017-08-09T06:32:04.722Z,16.90
2017-08-09T06:34:32.219Z,17.00
2017-08-09T06:37:00.032Z,17.10
2017-08-09T06:39:27.586Z,17.10
2017-08-09T06:41:55.086Z,17.30
2017-08-09T06:44:22.603Z,17.40
2017-08-09T06:46:50.283Z,17.50
2017-08-09T06:49:17.803Z,17.60
2017-08-09T06:51:46.066Z,17.60
2017-08-09T06:54:13.577Z,17.60
2017-08-09T06:56:41.075Z,17.80
2017-08-09T06:59:08.598Z,17.90
2017-08-09T07:01:36.131Z,18.00
2017-08-09T07:04:03.691Z,18.10
2017-08-09T07:06:31.614Z,18.20
2017-08-09T07:08:59.723Z,18.30
2017-08-09T07:11:27.242Z,18.40
2017-08-09T07:13:54.843Z,18.50
2017-08-09T07:16:22.363Z,18.60
2017-08-09T07:18:49.865Z,18.70
2017-08-09T07:21:17.383Z,18.70
2017-08-09T07:23:44.984Z,18.80
2017-08-09T07:26:12.507Z,18.90
2017-08-09T07:28:41.592Z,19.10
2017-08-09T07:31:09.187Z,19.10
2017-08-09T07:33:36.907Z,19.10
2017-08-09T07:36:04.418Z,19.20
2017-08-09T07:38:31.974Z,19.30
2017-08-09T07:40:59.497Z,19.30
2017-08-09T07:43:27.086Z,19.30
2017-08-09T07:45:54.588Z,19.40
2017-08-09T07:48:22.215Z,19.50
2017-08-09T07:50:49.719Z,19.50
2017-08-09T07:53:17.318Z,19.50
2017-08-09T07:55:44.835Z,19.60
2017-08-09T07:58:12.351Z,19.60
2017-08-09T08:00:39.846Z,19.70
2017-08-09T08:03:07.459Z,19.70
2017-08-09T08:05:35.028Z,19.70
2017-08-09T08:08:03.153Z,19.80
2017-08-09T08:10:30.660Z,19.90
2017-08-09T08:12:58.195Z,20.00
2017-08-09T08:15:25.776Z,20.00
2017-08-09T08:17:53.279Z,20.10
2017-08-09T08:20:20.883Z,20.10
2017-08-09T08:22:48.386Z,20.20
2017-08-09T08:25:15.907Z,20.30
2017-08-09T08:27:43.425Z,20.30
2017-08-09T08:30:10.943Z,20.30
2017-08-09T08:32:38.476Z,20.40
2017-08-09T08:35:06.003Z,20.40
2017-08-09T08:37:34.275Z,20.50
2017-08-09T08:40:01.791Z,20.50
2017-08-09T08:42:29.300Z,20.60
2017-08-09T08:44:57.586Z,20.60
2017-08-09T08:47:25.879Z,20.70
2017-08-09T08:49:53.403Z,20.60
2017-08-09T08:52:20.898Z,20.80
2017-08-09T08:54:48.403Z,20.90
2017-08-09T08:57:15.920Z,20.90
2017-08-09T08:59:44.079Z,21.00
2017-08-09T09:02:11.596Z,21.10
2017-08-09T09:04:39.094Z,21.20
2017-08-09T09:07:06.610Z,21.30
2017-08-09T09:09:34.115Z,21.30
2017-08-09T09:12:01.671Z,21.20
2017-08-09T09:14:29.192Z,21.30
2017-08-09T09:16:56.711Z,21.40
2017-08-09T09:19:24.206Z,21.50
2017-08-09T09:21:51.728Z,21.50
2017-08-09T09:24:19.351Z,21.60
2017-08-09T09:26:46.855Z,21.70
2017-08-09T09:29:14.479Z,21.80
2017-08-09T09:31:42.039Z,21.90
2017-08-09T09:34:09.562Z,22.00
2017-08-09T09:36:37.154Z,22.10
2017-08-09T09:39:04.729Z,22.20
2017-08-09T09:41:33.142Z,22.40
2017-08-09T09:44:00.663Z,22.40
2017-08-09T09:46:28.167Z,22.40
2017-08-09T09:48:55.694Z,22.50
2017-08-09T09:51:23.207Z,22.50
2017-08-09T09:53:51.510Z,22.50
2017-08-09T09:56:19.882Z,22.50
2017-08-09T09:58:47.391Z,22.40
2017-08-09T10:01:15.003Z,22.50
2017-08-09T10:03:42.509Z,22.60
2017-08-09T10:06:10.023Z,22.80
2017-08-09T10:08:37.526Z,22.90
2017-08-09T10:11:05.053Z,23.10
2017-08-09T10:13:32.559Z,23.20
2017-08-09T10:16:00.847Z,23.40
2017-08-09T10:18:29.330Z,23.50
2017-08-09T10:20:57.614Z,23.50
2017-08-09T10:23:25.131Z,23.50
2017-08-09T10:25:52.673Z,23.60
2017-08-09T10:28:20.203Z,23.70
2017-08-09T10:30:47.706Z,23.70
2017-08-09T10:33:15.223Z,23.70
2017-08-09T10:35:42.951Z,23.80
2017-08-09T10:38:11.251Z,23.80
2017-08-09T10:40:38.761Z,23.80
2017-08-09T10:43:06.366Z,23.80
2017-08-09T10:45:33.869Z,23.80
2017-08-09T10:48:01.388Z,23.80
2017-08-09T10:50:29.856Z,23.80
2017-08-09T10:52:57.379Z,23.90
2017-08-09T10:55:24.884Z,23.90
2017-08-09T10:57:52.427Z,23.90
2017-08-09T11:00:20.302Z,24.00
2017-08-09T11:02:47.799Z,23.90
2017-08-09T11:05:15.319Z,24.00
2017-08-09T11:07:42.827Z,24.00
2017-08-09T11:10:10.348Z,24.00
2017-08-09T11:12:38.619Z,24.00
2017-08-09T11:15:06.175Z,24.00
2017-08-09T11:17:33.735Z,24.10
2017-08-09T11:20:01.294Z,24.10
2017-08-09T11:22:28.796Z,24.10
2017-08-09T11:24:56.933Z,24.20
2017-08-09T11:27:24.431Z,24.30
2017-08-09T11:29:52.039Z,24.20
2017-08-09T11:32:19.603Z,24.20
2017-08-09T11:34:47.159Z,24.20
2017-08-09T11:37:14.686Z,24.20
2017-08-09T11:39:42.964Z,24.30
2017-08-09T11:42:11.255Z,24.30
2017-08-09T11:44:39.518Z,24.30
2017-08-09T11:47:07.802Z,24.30
2017-08-09T11:49:36.072Z,24.30
2017-08-09T11:52:04.363Z,24.30
2017-08-09T11:54:31.938Z,24.30
2017-08-09T11:56:59.463Z,24.40
2017-08-09T11:59:27.766Z,24.40
2017-08-09T12:01:55.411Z,24.40
2017-08-09T12:04:23.681Z,24.40
2017-08-09T12:06:52.222Z,24.40
2017-08-09T12:09:19.844Z,24.40
2017-08-09T12:11:47.355Z,24.60
2017-08-09T12:14:14.874Z,24.60
2017-08-09T12:16:42.375Z,24.70
2017-08-09T12:19:09.979Z,25.00
2017-08-09T12:21:37.487Z,25.30
2017-08-09T12:24:05.009Z,25.50
2017-08-09T12:26:32.927Z,25.50
2017-08-09T12:29:01.215Z,25.20
2017-08-09T12:31:29.495Z,25.10
2017-08-09T12:33:57.779Z,24.70
2017-08-09T12:36:25.351Z,24.70
2017-08-09T12:38:52.851Z,24.40
2017-08-09T12:41:20.680Z,24.20
2017-08-09T12:43:48.235Z,24.10
2017-08-09T12:46:15.795Z,24.00
2017-08-09T12:48:43.351Z,24.00
2017-08-09T12:51:11.523Z,23.90
2017-08-09T12:53:39.083Z,23.80
2017-08-09T12:56:06.600Z,23.60
2017-08-09T12:58:34.102Z,23.50
2017-08-09T13:01:01.654Z,23.40
2017-08-09T13:03:29.164Z,23.30
2017-08-09T13:05:56.667Z,23.30
2017-08-09T13:08:24.738Z,23.40
2017-08-09T13:10:52.239Z,23.40
2017-08-09T13:13:19.755Z,23.40
2017-08-09T13:15:47.272Z,23.40
2017-08-09T13:18:14.792Z,23.40
2017-08-09T13:20:42.330Z,23.40
2017-08-09T13:23:09.897Z,23.40
2017-08-09T13:25:37.403Z,23.50
2017-08-09T13:28:04.919Z,23.60
2017-08-09T13:30:32.427Z,23.70
2017-08-09T13:32:59.947Z,23.70
2017-08-09T13:35:27.447Z,23.70
2017-08-09T13:37:55.012Z,23.80
2017-08-09T13:40:23.743Z,23.80
2017-08-09T13:42:51.282Z,23.80
2017-08-09T13:45:18.847Z,23.80
2017-08-09T13:47:46.357Z,23.80
2017-08-09T13:50:13.958Z,23.90
2017-08-09T13:52:41.463Z,23.90
2017-08-09T13:55:08.982Z,23.80
2017-08-09T13:57:36.686Z,23.80
2017-08-09T14:00:04.208Z,23.70
2017-08-09T14:02:31.711Z,23.70
2017-08-09T14:04:59.235Z,23.60
2017-08-09T14:07:26.735Z,23.60
2017-08-09T14:09:54.278Z,23.50
2017-08-09T14:12:21.790Z,23.50
2017-08-09T14:14:49.296Z,23.50
2017-08-09T14:17:16.819Z,23.60
2017-08-09T14:19:44.324Z,23.50
2017-08-09T14:22:11.848Z,23.50
2017-08-09T14:24:39.384Z,23.30
2017-08-09T14:27:06.904Z,23.20
2017-08-09T14:29:35.166Z,23.10
2017-08-09T14:32:02.682Z,23.10
2017-08-09T14:34:30.186Z,23.00
2017-08-09T14:36:57.698Z,23.00
2017-08-09T14:39:25.407Z,22.90
2017-08-09T14:41:52.936Z,22.90
2017-08-09T14:44:20.438Z,22.90
2017-08-09T14:46:48.711Z,22.80
2017-08-09T14:49:17.004Z,22.70
2017-08-09T14:51:44.507Z,22.70
2017-08-09T14:54:12.030Z,22.70
2017-08-09T14:56:39.856Z,22.60
2017-08-09T14:59:07.371Z,22.60
2017-08-09T15:01:34.866Z,22.60
2017-08-09T15:04:02.387Z,22.60
2017-08-09T15:06:29.898Z,22.50
2017-08-09T15:08:58.202Z,22.50
2017-08-09T15:11:25.704Z,22.50
2017-08-09T15:13:53.336Z,22.50
2017-08-09T15:16:21.525Z,22.40
2017-08-09T15:18:49.055Z,22.40
2017-08-09T15:21:16.624Z,22.40
2017-08-09T15:23:44.150Z,22.40
2017-08-09T15:26:12.447Z,22.30
2017-08-09T15:28:40.011Z,22.20
2017-08-09T15:31:07.572Z,22.20
2017-08-09T15:33:35.075Z,22.20
2017-08-09T15:36:02.600Z,22.10
2017-08-09T15:38:30.143Z,22.10
2017-08-09T15:40:57.698Z,22.10
2017-08-09T15:43:25.271Z,22.10
2017-08-09T15:45:53.247Z,22.10
2017-08-09T15:48:20.756Z,22.10
2017-08-09T15:50:49.043Z,22.00
2017-08-09T15:53:17.314Z,22.00
2017-08-09T15:55:45.599Z,22.00
2017-08-09T15:58:13.866Z,22.00
2017-08-09T16:00:42.144Z,22.00
2017-08-09T16:03:10.444Z,21.90
2017-08-09T16:05:38.003Z,22.00
2017-08-09T16:08:05.514Z,21.90
2017-08-09T16:10:33.019Z,21.90
2017-08-09T16:13:00.538Z,21.90
2017-08-09T16:15:28.043Z,21.90
2017-08-09T16:17:55.559Z,21.90
2017-08-09T16:20:23.834Z,21.90
2017-08-09T16:22:51.356Z,21.90
2017-08-09T16:25:18.864Z,21.90
2017-08-09T16:27:47.259Z,22.00
2017-08-09T16:30:14.755Z,22.00
2017-08-09T16:32:42.260Z,21.90
2017-08-09T16:35:10.543Z,21.90
2017-08-09T16:37:38.047Z,21.90
2017-08-09T16:40:05.574Z,21.90
2017-08-09T16:42:33.132Z,21.90
2017-08-09T16:45:00.679Z,21.90
2017-08-09T16:47:28.191Z,21.90
2017-08-09T16:49:55.706Z,21.90
2017-08-09T16:52:23.666Z,21.80
2017-08-09T16:54:51.194Z,21.80
2017-08-09T16:57:18.707Z,21.80
2017-08-09T16:59:46.211Z,21.80
2017-08-09T17:02:14.499Z,21.70
2017-08-09T17:04:42.795Z,21.80
2017-08-09T17:07:10.354Z,21.80
2017-08-09T17:09:37.915Z,21.80
2017-08-09T17:12:05.471Z,21.80
2017-08-09T17:14:32.976Z,21.70
2017-08-09T17:17:00.495Z,21.70
2017-08-09T17:19:28.519Z,21.70
2017-08-09T17:21:56.039Z,21.60
2017-08-09T17:24:23.534Z,21.60
2017-08-09T17:26:51.059Z,21.60
2017-08-09T17:29:18.592Z,21.60
2017-08-09T17:31:46.123Z,21.60
2017-08-09T17:34:14.395Z,21.60
2017-08-09T17:36:42.668Z,21.60
2017-08-09T17:39:10.970Z,21.60
2017-08-09T17:41:38.479Z,21.60
2017-08-09T17:44:06.001Z,21.60
2017-08-09T17:46:33.504Z,21.60
2017-08-09T17:49:01.024Z,21.60
2017-08-09T17:51:28.522Z,21.60
2017-08-09T17:53:56.052Z,21.50
2017-08-09T17:56:23.569Z,21.50
2017-08-09T17:58:51.856Z,21.50
2017-08-09T18:01:19.364Z,21.50
2017-08-09T18:03:46.884Z,21.50
2017-08-09T18:06:15.207Z,21.50
2017-08-09T18:08:42.751Z,21.50
2017-08-09T18:11:10.914Z,21.60
2017-08-09T18:13:38.438Z,21.60
2017-08-09T18:16:06.004Z,21.50
2017-08-09T18:18:33.506Z,21.50
2017-08-09T18:21:01.580Z,21.50
2017-08-09T18:23:29.082Z,21.50
2017-08-09T18:25:56.606Z,21.50
2017-08-09T18:28:24.114Z,21.40
2017-08-09T18:30:51.627Z,21.50
2017-08-09T18:33:19.894Z,21.40
2017-08-09T18:35:47.495Z,21.40
2017-08-09T18:38:15.004Z,21.40
2017-08-09T18:40:42.539Z,21.40
2017-08-09T18:43:10.511Z,21.40
2017-08-09T18:45:38.244Z,21.40
2017-08-09T18:48:05.743Z,21.40
2017-08-09T18:50:33.471Z,21.40
2017-08-09T18:53:01.027Z,21.40
2017-08-09T18:55:28.537Z,21.30
2017-08-09T18:57:56.056Z,21.40
2017-08-09T19:00:23.554Z,21.40
2017-08-09T19:02:51.072Z,21.40
2017-08-09T19:05:18.624Z,21.40
2017-08-09T19:07:46.232Z,21.30
2017-08-09T19:10:13.732Z,21.30
2017-08-09T19:12:41.290Z,21.30
2017-08-09T19:15:08.795Z,21.30
2017-08-09T19:17:36.318Z,21.30
2017-08-09T19:20:03.895Z,21.30
2017-08-09T19:22:31.414Z,21.30
2017-08-09T19:24:58.933Z,21.40
2017-08-09T19:27:27.240Z,21.20
2017-08-09T19:29:54.773Z,21.20
2017-08-09T19:32:22.700Z,21.30
2017-08-09T19:34:50.227Z,21.30
2017-08-09T19:37:18.504Z,21.20
2017-08-09T19:39:46.787Z,21.20
2017-08-09T19:42:14.283Z,21.20
2017-08-09T19:44:41.803Z,21.20
2017-08-09T19:47:09.320Z,21.20
2017-08-09T19:49:36.851Z,21.10
2017-08-09T19:52:04.351Z,21.10
2017-08-09T19:54:32.658Z,21.00
2017-08-09T19:57:00.215Z,21.00
2017-08-09T19:59:27.725Z,20.90
2017-08-09T20:01:55.339Z,20.80
2017-08-09T20:04:22.890Z,20.70
2017-08-09T20:06:50.411Z,20.50
2017-08-09T20:09:18.219Z,20.30
2017-08-09T20:11:46.187Z,20.10
2017-08-09T20:14:13.696Z,19.70
2017-08-09T20:16:41.219Z,19.20
2017-08-09T20:19:08.722Z,18.90
2017-08-09T20:21:36.246Z,18.60
2017-08-09T20:24:03.743Z,18.40
2017-08-09T20:26:31.337Z,18.20
2017-08-09T20:29:00.365Z,18.00
2017-08-09T20:31:27.903Z,17.90
2017-08-09T20:33:55.524Z,17.80
2017-08-09T20:36:23.795Z,17.80
2017-08-09T20:38:52.087Z,17.80
2017-08-09T20:41:20.360Z,17.80
2017-08-09T20:43:48.638Z,17.70
2017-08-09T20:46:16.219Z,17.70
2017-08-09T20:48:43.738Z,17.70
2017-08-09T20:51:12.011Z,17.40
2017-08-09T20:53:40.303Z,17.30
2017-08-09T20:56:08.575Z,17.20
2017-08-09T20:58:36.860Z,17.10
2017-08-09T21:01:05.131Z,17.10
2017-08-09T21:03:33.531Z,17.00
2017-08-09T21:06:01.064Z,17.00
2017-08-09T21:08:29.372Z,16.90
2017-08-09T21:10:56.880Z,16.80
2017-08-09T21:13:24.399Z,16.80
2017-08-09T21:15:51.940Z,16.80
2017-08-09T21:18:19.452Z,16.80
2017-08-09T21:20:47.755Z,16.80
2017-08-09T21:23:16.051Z,16.80
2017-08-09T21:25:43.571Z,16.70
2017-08-09T21:28:11.087Z,16.70
2017-08-09T21:30:38.619Z,16.70
2017-08-09T21:33:06.135Z,16.70
2017-08-09T21:35:33.740Z,16.70
2017-08-09T21:38:01.252Z,16.70
2017-08-09T21:40:28.795Z,16.70
2017-08-09T21:42:56.300Z,16.70
2017-08-09T21:45:24.723Z,16.70
2017-08-09T21:47:52.351Z,16.70
2017-08-09T21:50:19.911Z,16.80
2017-08-09T21:52:48.162Z,16.80
2017-08-09T21:55:16.859Z,16.70
2017-08-09T21:57:46.892Z,16.70
2017-08-09T22:00:14.405Z,16.70
2017-08-09T22:02:41.923Z,16.70
2017-08-09T22:05:09.467Z,16.70
2017-08-09T22:07:36.993Z,16.70
2017-08-09T22:10:05.304Z,16.60
2017-08-09T22:12:32.862Z,16.60
2017-08-09T22:15:00.371Z,16.60
2017-08-09T22:17:27.885Z,16.60
2017-08-09T22:19:55.403Z,16.70
2017-08-09T22:22:23.712Z,16.60
2017-08-09T22:24:51.230Z,16.60
2017-08-09T22:27:18.736Z,16.60
2017-08-09T22:29:46.255Z,16.60
2017-08-09T22:32:14.563Z,16.70
2017-08-09T22:34:42.122Z,16.70
2017-08-09T22:37:09.619Z,16.60
2017-08-09T22:39:37.137Z,16.60
2017-08-09T22:42:04.644Z,16.60
2017-08-09T22:44:32.167Z,16.60
2017-08-09T22:46:59.671Z,16.60
2017-08-09T22:49:27.190Z,16.60
2017-08-09T22:51:54.707Z,16.60
2017-08-09T22:54:22.975Z,16.60
2017-08-09T22:56:51.285Z,16.60
2017-08-09T22:59:18.782Z,16.60
2017-08-09T23:01:46.299Z,16.60
2017-08-09T23:04:13.803Z,16.70
2017-08-09T23:06:41.323Z,16.60
2017-08-09T23:09:08.823Z,16.60
2017-08-09T23:11:36.407Z,16.60
2017-08-09T23:14:04.692Z,16.50
2017-08-09T23:16:33.039Z,16.50
2017-08-09T23:19:00.551Z,16.50
2017-08-09T23:21:28.055Z,16.50
2017-08-09T23:23:55.582Z,16.60
2017-08-09T23:26:23.206Z,16.60
2017-08-09T23:28:50.776Z,16.60
2017-08-09T23:31:18.619Z,16.60
2017-08-09T23:33:46.926Z,16.60
2017-08-09T23:36:14.431Z,16.70
2017-08-09T23:38:41.951Z,16.70
2017-08-09T23:41:09.486Z,16.70
2017-08-09T23:43:37.017Z,16.70
2017-08-09T23:46:05.291Z,16.70
2017-08-09T23:48:33.598Z,16.70
2017-08-09T23:51:01.111Z,16.60
2017-08-09T23:53:28.618Z,16.60
2017-08-09T23:55:56.138Z,16.60
2017-08-09T23:58:24.423Z,16.60
